Time,TemperatureF,DewpointF,PressureIn,WindDirection,WindDirectionDegrees,WindSpeedMPH,WindSpeedGustMPH,Humidity,HourlyPrecipIn,Conditions,Clouds,dailyrainin,SolarRadiationWatts/m^2,SoftwareType,DateUTC
2013-11-04 00:02:00,32.0,30.0,-100.00,NNE,24,1.0,7.0,93,0.00,,,0.07,0.000000,,2013-11-04 08:02:00,
2013-11-04 00:42:00,32.0,30.0,-100.00,ENE,70,1.0,7.0,94,0.00,,,0.07,0.000000,,2013-11-04 08:42:00,
2013-11-04 00:52:00,32.0,30.0,-100.00,ENE,70,1.0,7.0,94,0.00,,,0.07,0.000000,,2013-11-04 08:52:00,
2013-11-04 01:02:00,32.0,30.0,-100.00,ENE,70,1.0,7.0,94,0.00,,,0.07,0.000000,,2013-11-04 09:02:00,
2013-11-04 01:43:00,32.0,30.0,-100.00,NNW,345,1.0,6.0,94,0.00,,,0.07,0.000000,,2013-11-04 09:43:00,
2013-11-04 01:53:00,32.0,30.0,-100.00,NNW,345,1.0,6.0,94,0.00,,,0.07,0.000000,,2013-11-04 09:53:00,
2013-11-04 02:03:00,32.0,30.0,-100.00,NNW,345,1.0,6.0,94,0.00,,,0.07,0.000000,,2013-11-04 10:03:00,
2013-11-04 02:42:00,32.0,30.0,-100.00,NNW,329,1.0,5.0,94,0.00,,,0.07,0.000000,,2013-11-04 10:42:00,
2013-11-04 02:52:00,32.0,30.0,-100.00,NNW,329,1.0,5.0,94,0.00,,,0.07,0.000000,,2013-11-04 10:52:00,
2013-11-04 03:02:00,32.0,30.0,-100.00,NNW,329,1.0,5.0,94,0.00,,,0.07,0.000000,,2013-11-04 11:02:00,
2013-11-04 03:42:00,32.0,30.0,-100.00,NW,310,1.0,3.0,94,0.00,,,0.07,0.000000,,2013-11-04 11:42:00,
2013-11-04 03:52:00,32.0,30.0,-100.00,NW,310,1.0,3.0,94,0.00,,,0.07,0.000000,,2013-11-04 11:52:00,
2013-11-04 04:02:00,32.0,30.0,-100.00,NW,310,1.0,3.0,94,0.00,,,0.07,0.000000,,2013-11-04 12:02:00,
2013-11-04 04:42:00,31.0,29.0,-100.00,NNW,347,1.0,6.0,94,0.00,,,0.07,0.000000,,2013-11-04 12:42:00,
2013-11-04 04:52:00,31.0,29.0,-100.00,NNW,347,1.0,6.0,94,0.00,,,0.07,0.000000,,2013-11-04 12:52:00,
2013-11-04 05:01:00,31.0,29.0,-100.00,NNW,347,1.0,6.0,94,0.00,,,0.07,0.000000,,2013-11-04 13:01:00,
2013-11-04 05:42:00,31.0,29.0,-100.00,NNW,331,1.0,5.0,94,0.00,,,0.07,0.000000,,2013-11-04 13:42:00,
2013-11-04 05:52:00,31.0,29.0,-100.00,NNW,331,1.0,5.0,94,0.00,,,0.07,0.000000,,2013-11-04 13:52:00,
2013-11-04 06:02:00,31.0,29.0,-100.00,NNW,331,1.0,5.0,94,0.00,,,0.07,0.000000,,2013-11-04 14:02:00,
2013-11-04 06:42:00,31.0,29.0,-100.00,NW,304,1.0,4.0,94,0.00,,,0.07,0.000000,,2013-11-04 14:42:00,
2013-11-04 06:52:00,31.0,29.0,-100.00,NW,304,1.0,4.0,94,0.00,,,0.07,0.000000,,2013-11-04 14:52:00,
2013-11-04 07:02:00,31.0,29.0,-100.00,NW,304,1.0,4.0,94,0.00,,,0.07,0.000000,,2013-11-04 15:02:00,
2013-11-04 07:42:00,31.0,29.0,-100.00,North,2,1.0,3.0,94,0.00,,,0.07,2.000000,,2013-11-04 15:42:00,
2013-11-04 07:52:00,31.0,29.0,-100.00,North,2,1.0,3.0,94,0.00,,,0.07,2.000000,,2013-11-04 15:52:00,
2013-11-04 08:03:00,31.0,29.0,-100.00,North,2,1.0,3.0,94,0.00,,,0.07,2.000000,,2013-11-04 16:03:00,
2013-11-04 08:43:00,30.0,28.0,-100.00,SW,233,1.0,2.0,94,0.00,,,0.07,15.000000,,2013-11-04 16:43:00,
2013-11-04 08:53:00,30.0,28.0,-100.00,SW,233,1.0,2.0,94,0.00,,,0.07,15.000000,,2013-11-04 16:53:00,
2013-11-04 09:03:00,30.0,28.0,-100.00,SW,233,1.0,2.0,94,0.00,,,0.07,15.000000,,2013-11-04 17:03:00,
2013-11-04 09:42:00,30.0,28.0,-100.00,WSW,238,1.0,1.0,94,0.00,,,0.07,23.000000,,2013-11-04 17:42:00,
2013-11-04 09:53:00,30.0,28.0,-100.00,WSW,238,1.0,1.0,94,0.00,,,0.07,23.000000,,2013-11-04 17:53:00,
2013-11-04 10:01:00,30.0,28.0,-100.00,WSW,238,1.0,1.0,94,0.00,,,0.07,23.000000,,2013-11-04 18:01:00,
2013-11-04 10:42:00,34.0,32.0,-100.00,South,170,1.0,4.0,91,0.00,,,0.07,104.000000,,2013-11-04 18:42:00,
2013-11-04 10:52:00,34.0,32.0,-100.00,South,170,1.0,4.0,91,0.00,,,0.07,104.000000,,2013-11-04 18:52:00,
2013-11-04 11:01:00,34.0,32.0,-100.00,South,170,1.0,4.0,91,0.00,,,0.07,104.000000,,2013-11-04 19:01:00,
2013-11-04 11:42:00,37.0,29.0,-100.00,ESE,108,1.0,4.0,73,0.00,,,0.07,219.000000,,2013-11-04 19:42:00,
2013-11-04 11:52:00,37.0,29.0,-100.00,ESE,108,1.0,4.0,73,0.00,,,0.07,219.000000,,2013-11-04 19:52:00,
2013-11-04 12:01:00,37.0,29.0,-100.00,ESE,108,1.0,4.0,73,0.00,,,0.07,219.000000,,2013-11-04 20:01:00,
2013-11-04 12:42:00,43.0,34.0,-100.00,NNW,339,1.0,5.0,70,0.06,,,0.13,400.000000,,2013-11-04 20:42:00,
2013-11-04 12:52:00,43.0,34.0,-100.00,NNW,339,1.0,5.0,70,0.06,,,0.13,400.000000,,2013-11-04 20:52:00,
2013-11-04 13:02:00,43.0,34.0,-100.00,NNW,339,1.0,5.0,70,0.06,,,0.13,400.000000,,2013-11-04 21:02:00,
2013-11-04 13:45:00,45.0,33.0,-100.00,WSW,251,2.0,7.0,63,0.06,,,0.19,366.000000,,2013-11-04 21:45:00,
2013-11-04 14:43:00,42.0,32.0,-100.00,WSW,247,1.0,7.0,68,-99.99,,,0.23,255.000000,,2013-11-04 22:43:00,
2013-11-04 14:53:00,42.0,32.0,-100.00,WSW,247,1.0,7.0,68,-99.99,,,0.23,255.000000,,2013-11-04 22:53:00,
2013-11-04 15:02:00,42.0,32.0,-100.00,WSW,247,1.0,7.0,68,-99.99,,,0.23,255.000000,,2013-11-04 23:02:00,
2013-11-04 15:43:00,40.0,34.0,-100.00,SSE,166,1.0,6.0,78,0.03,,,0.24,179.000000,,2013-11-04 23:43:00,
2013-11-04 15:53:00,40.0,34.0,-100.00,SSE,166,1.0,6.0,78,0.03,,,0.24,179.000000,,2013-11-04 23:53:00,
2013-11-04 16:02:00,40.0,34.0,-100.00,SSE,166,1.0,6.0,78,0.03,,,0.24,179.000000,,2013-11-05 00:02:00,
2013-11-04 16:42:00,37.0,33.0,-100.00,NE,47,1.0,3.0,86,0.02,,,0.23,53.000000,,2013-11-05 00:42:00,
2013-11-04 16:52:00,37.0,33.0,-100.00,NE,47,1.0,3.0,86,0.02,,,0.23,53.000000,,2013-11-05 00:52:00,
2013-11-04 17:02:00,37.0,33.0,-100.00,NE,47,1.0,3.0,86,0.02,,,0.23,53.000000,,2013-11-05 01:02:00,
2013-11-04 17:42:00,35.0,33.0,-100.00,SW,224,1.0,2.0,92,0.00,,,0.22,6.000000,,2013-11-05 01:42:00,
2013-11-04 17:52:00,35.0,33.0,-100.00,SW,224,1.0,2.0,92,0.00,,,0.22,6.000000,,2013-11-05 01:52:00,
2013-11-04 18:01:00,35.0,33.0,-100.00,SW,224,1.0,2.0,92,0.00,,,0.22,6.000000,,2013-11-05 02:01:00,
2013-11-04 18:42:00,33.0,31.0,-100.00,North,351,1.0,2.0,94,0.00,,,0.21,0.000000,,2013-11-05 02:42:00,
2013-11-04 18:52:00,33.0,31.0,-100.00,North,351,1.0,2.0,94,0.00,,,0.21,0.000000,,2013-11-05 02:52:00,
2013-11-04 19:02:00,33.0,31.0,-100.00,North,351,1.0,2.0,94,0.00,,,0.21,0.000000,,2013-11-05 03:02:00,
2013-11-04 19:44:00,32.0,30.0,-100.00,NE,52,0.0,2.0,94,0.01,,,0.22,0.000000,,2013-11-05 03:44:00,
2013-11-04 19:54:00,32.0,30.0,-100.00,NE,52,0.0,2.0,94,0.01,,,0.22,0.000000,,2013-11-05 03:54:00,
2013-11-04 20:03:00,32.0,30.0,-100.00,NE,52,0.0,2.0,94,0.01,,,0.22,0.000000,,2013-11-05 04:03:00,
2013-11-04 20:43:00,32.0,31.0,-100.00,ENE,75,1.0,2.0,95,0.00,,,0.22,0.000000,,2013-11-05 04:43:00,
2013-11-04 20:53:00,32.0,31.0,-100.00,ENE,75,1.0,2.0,95,0.00,,,0.22,0.000000,,2013-11-05 04:53:00,
2013-11-04 21:03:00,32.0,31.0,-100.00,ENE,75,1.0,2.0,95,0.00,,,0.22,0.000000,,2013-11-05 05:03:00,
2013-11-04 21:43:00,34.0,33.0,-100.00,SSE,149,0.0,3.0,95,0.00,,,0.22,0.000000,,2013-11-05 05:43:00,
2013-11-04 21:54:00,34.0,33.0,-100.00,SSE,149,0.0,3.0,95,0.00,,,0.22,0.000000,,2013-11-05 05:54:00,
2013-11-04 22:03:00,34.0,33.0,-100.00,SSE,149,0.0,3.0,95,0.00,,,0.22,0.000000,,2013-11-05 06:03:00,
2013-11-04 22:42:00,32.0,31.0,-100.00,ENE,77,1.0,3.0,95,0.04,,,0.26,0.000000,,2013-11-05 06:42:00,
2013-11-04 22:52:00,32.0,31.0,-100.00,ENE,77,1.0,3.0,95,0.04,,,0.26,0.000000,,2013-11-05 06:52:00,
2013-11-04 23:02:00,32.0,31.0,-100.00,ENE,77,1.0,3.0,95,0.04,,,0.26,0.000000,,2013-11-05 07:02:00,
2013-11-04 23:43:00,32.0,31.0,-100.00,NNE,14,0.0,2.0,95,0.03,,,0.29,0.000000,,2013-11-05 07:43:00,
2013-11-04 23:52:00,32.0,31.0,-100.00,NNE,14,0.0,2.0,95,0.03,,,0.29,0.000000,,2013-11-05 07:52:00,